Time;durP1;ratioP1;P1;durP2;ratioP2;P2;SDS_P1;SDS_P2;PMS_P1;PMS_P2;Temp;Humidity;BMP_temperature;BMP_pressure;BME280_temperature;BME280_humidity;BME280_pressure;Samples;Min_cycle;Max_cycle;Signal;HPM_P1;HPM_P2
2023/05/11 00:01:19;;;;;;;;;4.00;3.00;;;;;14.98;62.84;101185.03;4994029;28;45903;-73
2023/05/11 00:03:45;;;;;;;;;6.33;4.00;;;;;14.87;62.56;101147.31;4994306;28;45419;-72
2023/05/11 00:06:10;;;;;;;;;3.33;3.33;;;;;15.13;62.83;101189.28;4994141;28;45362;-72
2023/05/11 00:08:36;;;;;;;;;4.00;4.00;;;;;14.98;63.80;101178.88;4994933;28;45292;-73
2023/05/11 00:11:02;;;;;;;;;4.00;3.00;;;;;14.81;63.17;101150.03;4998435;28;45561;-74
2023/05/11 00:13:27;;;;;;;;;6.33;4.33;;;;;14.79;63.25;101125.44;4998107;28;45566;-73
2023/05/11 00:15:53;;;;;;;;;7.67;5.00;;;;;15.05;62.61;101154.19;4998502;28;45327;-71
2023/05/11 00:18:19;;;;;;;;;4.67;4.33;;;;;15.08;62.96;101158.56;4998528;28;45449;-71
2023/05/11 00:20:45;;;;;;;;;6.00;4.33;;;;;15.29;62.13;101181.22;4994080;28;45573;-72
2023/05/11 00:23:10;;;;;;;;;5.33;3.67;;;;;15.11;63.12;101163.78;4992320;28;45540;-72
2023/05/11 00:25:37;;;;;;;;;4.00;4.00;;;;;14.92;63.66;101134.94;4993875;28;45565;-71
2023/05/11 00:28:04;;;;;;;;;3.00;3.00;;;;;14.94;64.27;101154.28;4981983;28;45513;-73
2023/05/11 00:30:30;;;;;;;;;4.00;4.00;;;;;15.16;64.11;101185.72;4998225;28;46508;-73
2023/05/11 00:32:55;;;;;;;;;4.00;3.00;;;;;14.92;63.30;101123.53;4997913;28;45552;-72
2023/05/11 00:35:21;;;;;;;;;4.67;4.00;;;;;15.18;63.23;101174.25;4994099;28;45467;-72
2023/05/11 00:37:47;;;;;;;;;5.00;5.00;;;;;14.95;63.97;101141.97;4994362;28;45335;-74
2023/05/11 00:40:13;;;;;;;;;5.67;4.00;;;;;15.12;63.55;101174.34;4992039;28;47159;-73
2023/05/11 00:42:42;;;;;;;;;7.00;5.00;;;;;15.16;62.91;101173.44;4993804;28;45398;-72
2023/05/11 00:45:07;;;;;;;;;4.00;4.00;;;;;15.13;63.60;101164.66;4994098;28;45442;-73
2023/05/11 00:47:37;;;;;;;;;4.00;4.00;;;;;14.90;62.98;101122.66;4994308;28;45585;-73
2023/05/11 00:50:03;;;;;;;;;6.67;5.00;;;;;15.11;62.26;101156.75;4993252;28;45599;-72
2023/05/11 00:52:29;;;;;;;;;4.00;4.00;;;;;15.18;63.18;101174.25;4994022;28;45407;-73
2023/05/11 00:54:55;;;;;;;;;5.33;3.67;;;;;15.02;62.97;101144.53;4996562;28;45408;-73
2023/05/11 00:57:20;;;;;;;;;6.33;5.33;;;;;15.11;62.06;101162.03;4994071;28;45730;-72
2023/05/11 00:59:48;;;;;;;;;3.33;3.33;;;;;15.00;62.37;101133.13;4993259;28;46058;-73
2023/05/11 01:02:14;;;;;;;;;4.00;4.00;;;;;15.01;62.26;101131.34;4993456;28;45500;-72
2023/05/11 01:04:39;;;;;;;;;5.00;5.00;;;;;15.26;61.84;101169.81;4993485;28;45624;-71
2023/05/11 01:07:14;;;;;;;;;4.67;4.00;;;;;15.14;61.59;101154.09;4993828;28;45473;-72
2023/05/11 01:09:54;;;;;;;;;4.67;4.67;;;;;15.29;61.67;101163.63;4993068;28;45478;-72
2023/05/11 01:12:32;;;;;;;;;3.67;3.00;;;;;15.30;61.66;101157.44;4994171;28;45900;-72
2023/05/11 01:15:09;;;;;;;;;7.00;3.00;;;;;15.18;61.45;101142.59;4996392;28;45421;-72
2023/05/11 01:17:56;;;;;;;;;4.00;3.00;;;;;15.33;61.73;101161.81;4996682;28;45642;-72
2023/05/11 01:20:28;;;;;;;;;2.67;2.00;;;;;15.23;61.84;101143.47;4992876;28;45508;-73
2023/05/11 01:22:54;;;;;;;;;4.33;4.00;;;;;15.28;61.96;101164.53;4993315;28;45535;-73
2023/05/11 01:25:28;;;;;;;;;3.00;3.00;;;;;15.30;61.87;101157.44;4995044;28;45550;-73
2023/05/11 01:28:20;;;;;;;;;3.00;2.00;;;;;15.10;62.09;101125.13;4991977;28;45398;-72
2023/05/11 01:30:53;;;;;;;;;6.00;5.00;;;;;15.32;61.52;101174.13;4992638;28;46195;-72
2023/05/11 01:33:31;;;;;;;;;3.67;3.00;;;;;15.24;62.09;101163.66;4993078;28;45779;-73
2023/05/11 01:36:09;;;;;;;;;4.00;3.00;;;;;15.17;61.87;101156.69;4995355;28;45578;-72
2023/05/11 01:38:40;;;;;;;;;3.33;3.00;;;;;15.21;62.53;101161.06;4997472;28;45447;-73
2023/05/11 01:41:15;;;;;;;;;6.00;3.00;;;;;15.29;61.62;101160.97;4999746;28;45711;-72
2023/05/11 01:43:43;;;;;;;;;4.67;3.33;;;;;15.19;62.14;101149.66;4997744;28;45545;-72
2023/05/11 01:46:11;;;;;;;;;2.67;2.67;;;;;15.17;61.58;101145.28;4995902;28;45520;-72
2023/05/11 01:48:47;;;;;;;;;3.00;3.00;;;;;15.00;61.96;101127.00;4996308;28;45427;-73
2023/05/11 01:51:14;;;;;;;;;2.67;2.67;;;;;15.24;62.49;101168.06;4997099;28;46235;-72
2023/05/11 01:53:43;;;;;;;;;3.00;3.00;;;;;15.16;62.17;101165.53;5000930;28;45478;-72
2023/05/11 01:56:10;;;;;;;;;3.00;2.00;;;;;15.03;62.44;101164.75;5000724;28;45522;-73
2023/05/11 01:58:37;;;;;;;;;2.00;2.00;;;;;15.08;62.48;101167.34;5000716;28;45720;-72
2023/05/11 02:01:04;;;;;;;;;3.33;2.33;;;;;14.83;62.11;101133.28;4994673;28;45989;-73
2023/05/11 02:03:38;;;;;;;;;3.00;3.00;;;;;14.72;63.44;101132.50;4995072;28;45509;-72
2023/05/11 02:06:05;;;;;;;;;3.00;1.67;;;;;14.96;62.78;101168.34;4996629;28;45899;-72
2023/05/11 02:08:32;;;;;;;;;3.00;3.00;;;;;14.97;62.94;101167.47;4994884;28;45515;-72
2023/05/11 02:11:01;;;;;;;;;2.00;1.33;;;;;15.06;62.10;101172.63;4996507;28;45923;-72
2023/05/11 02:13:29;;;;;;;;;3.67;2.00;;;;;14.91;62.61;101154.31;4994595;28;45360;-72
2023/05/11 02:15:57;;;;;;;;;1.00;1.00;;;;;15.06;62.53;101177.03;4996741;28;45355;-72
2023/05/11 02:18:23;;;;;;;;;1.00;1.00;;;;;15.09;62.71;101179.66;5000819;28;45485;-73
2023/05/11 02:20:50;;;;;;;;;3.00;3.00;;;;;14.93;62.56;101146.41;5000504;28;46334;-72
2023/05/11 02:23:18;;;;;;;;;2.00;2.00;;;;;15.12;62.61;101184.03;5000129;28;45349;-73
2023/05/11 02:25:44;;;;;;;;;2.00;2.00;;;;;15.00;62.45;101169.19;4999939;28;45372;-73
2023/05/11 02:28:09;;;;;;;;;2.00;2.00;;;;;14.78;62.92;101127.19;4999954;28;45442;-72
2023/05/11 02:30:44;;;;;;;;;2.67;2.00;;;;;15.12;62.47;101179.63;4999717;28;46510;-71
2023/05/11 02:33:17;;;;;;;;;2.33;2.33;;;;;15.15;62.58;101178.72;4995013;28;45487;-72
2023/05/11 02:35:44;;;;;;;;;2.00;1.00;;;;;14.97;62.46;101148.09;4994770;28;45301;-71
2023/05/11 02:38:13;;;;;;;;;2.00;2.00;;;;;15.08;62.74;101169.97;4995730;28;45288;-72
2023/05/11 02:40:44;;;;;;;;;5.00;3.00;;;;;14.91;62.88;101145.53;4995327;28;46596;-72
2023/05/11 02:43:19;;;;;;;;;3.33;3.00;;;;;15.12;63.00;101176.97;4995084;28;45880;-72
2023/05/11 02:45:47;;;;;;;;;3.00;2.00;;;;;14.91;63.05;101142.91;4995266;28;45853;-72
2023/05/11 02:48:21;;;;;;;;;2.00;2.00;;;;;14.92;62.74;101163.09;4995842;28;45503;-73
2023/05/11 02:50:50;;;;;;;;;3.33;3.00;;;;;14.92;63.53;101149.91;4994812;28;45598;-72
2023/05/11 02:53:17;;;;;;;;;5.00;3.00;;;;;14.86;63.36;101136.78;4996172;28;45368;-73
2023/05/11 02:55:44;;;;;;;;;2.33;2.00;;;;;15.06;63.65;101169.97;4998265;28;45693;-71
2023/05/11 02:58:09;;;;;;;;;4.00;2.00;;;;;15.07;63.36;101168.25;4994998;28;45686;-72
2023/05/11 03:00:35;;;;;;;;;2.00;1.00;;;;;15.06;63.90;101169.97;4996236;28;45880;-73
2023/05/11 03:03:04;;;;;;;;;1.67;1.33;;;;;14.95;63.32;101163.06;4996324;28;45410;-72
2023/05/11 03:05:29;;;;;;;;;3.00;2.00;;;;;14.91;63.46;101154.31;4995111;28;45494;-71
2023/05/11 03:07:57;;;;;;;;;7.67;2.67;;;;;15.01;63.76;101176.19;4996145;28;45390;-72
2023/05/11 03:10:28;;;;;;;;;5.00;2.00;;;;;14.96;63.66;101162.19;4998314;28;45466;-72
2023/05/11 03:12:54;;;;;;;;;2.33;2.33;;;;;14.96;63.91;101164.81;4994953;28;45322;-71
2023/05/11 03:15:21;;;;;;;;;6.33;3.00;;;;;14.99;63.60;101173.56;4996007;28;45372;-70
2023/05/11 03:17:49;;;;;;;;;4.00;3.00;;;;;14.95;63.47;101170.97;4995123;28;45347;-72
2023/05/11 03:20:16;;;;;;;;;2.67;2.00;;;;;14.80;63.45;101146.47;4999293;28;45344;-72
2023/05/11 03:22:44;;;;;;;;;2.00;2.00;;;;;14.93;63.44;101168.38;4999425;28;45473;-73
2023/05/11 03:25:11;;;;;;;;;4.00;2.00;;;;;14.91;63.46;101164.88;4999444;28;45417;-71
2023/05/11 03:27:40;;;;;;;;;2.67;2.33;;;;;14.94;63.59;101159.56;4999616;28;45439;-72
2023/05/11 03:30:12;;;;;;;;;4.00;3.00;;;;;14.94;64.14;101171.88;4999083;28;45595;-70
2023/05/11 03:32:38;;;;;;;;;2.67;2.67;;;;;14.92;63.48;101161.31;4990693;28;45840;-72
2023/05/11 03:35:05;;;;;;;;;1.67;1.00;;;;;14.86;64.01;101156.13;4994861;28;45479;-72
2023/05/11 03:37:35;;;;;;;;;2.00;2.00;;;;;14.93;63.66;101165.72;4996470;28;45424;-74
2023/05/11 03:40:03;;;;;;;;;3.00;2.00;;;;;14.83;63.77;101149.13;4980965;28;45480;-74
2023/05/11 03:42:31;;;;;;;;;3.33;2.00;;;;;14.68;63.65;101122.00;4998313;28;45494;-75
2023/05/11 03:44:59;;;;;;;;;2.67;1.00;;;;;14.76;63.57;101139.50;5013972;28;45588;-74
2023/05/11 03:47:27;;;;;;;;;1.00;1.00;;;;;14.71;63.36;101137.78;4998437;28;45372;-73
2023/05/11 03:49:54;;;;;;;;;2.00;1.33;;;;;14.84;63.05;101164.03;4994331;28;45443;-75
2023/05/11 03:52:20;;;;;;;;;3.33;2.00;;;;;14.66;63.50;101127.28;4980215;28;45520;-75
2023/05/11 03:54:46;;;;;;;;;3.00;1.67;;;;;14.86;63.04;101157.91;4988598;28;45402;-77
2023/05/11 03:57:13;;;;;;;;;2.00;2.00;;;;;14.78;63.24;101143.00;4997681;28;45499;-75
2023/05/11 03:59:39;;;;;;;;;2.00;1.00;;;;;14.62;62.88;101117.66;4998227;28;45939;-76
2023/05/11 04:02:05;;;;;;;;;3.67;2.00;;;;;14.75;62.82;101134.25;4994380;28;45450;-76
2023/05/11 04:04:34;;;;;;;;;3.00;1.67;;;;;14.83;62.88;101154.41;4995485;28;45424;-76
2023/05/11 04:07:00;;;;;;;;;4.00;2.00;;;;;14.87;62.72;101159.63;4999387;28;46222;-77
2023/05/11 04:09:25;;;;;;;;;2.33;2.33;;;;;14.76;63.03;101141.25;4995806;28;46394;-75
2023/05/11 04:11:51;;;;;;;;;4.33;3.00;;;;;14.82;62.80;101155.25;4994434;28;45404;-72
2023/05/11 04:14:19;;;;;;;;;5.00;3.00;;;;;14.77;62.78;101145.66;4994645;28;45781;-75
2023/05/11 04:16:45;;;;;;;;;3.00;3.00;;;;;14.55;63.40;101111.56;4995834;28;45415;-74
2023/05/11 04:19:11;;;;;;;;;4.00;2.00;;;;;14.62;64.66;101118.53;4999188;28;45564;-73
2023/05/11 04:21:36;;;;;;;;;1.00;1.00;;;;;14.92;63.39;101157.81;4998595;28;45437;-75
2023/05/11 04:24:02;;;;;;;;;2.00;2.00;;;;;14.56;64.52;101105.41;4995375;28;45354;-73
2023/05/11 04:26:28;;;;;;;;;2.00;2.00;;;;;14.96;63.39;101152.50;4994844;28;45341;-74
2023/05/11 04:28:53;;;;;;;;;4.00;2.67;;;;;14.51;63.43;101088.72;4997417;28;45440;-73
2023/05/11 04:31:19;;;;;;;;;4.00;2.00;;;;;14.42;63.27;101079.13;4993694;28;45420;-75
2023/05/11 04:33:45;;;;;;;;;23.25;21.25;;;;;14.80;65.11;101145.63;4977804;28;45334;-74
2023/05/11 04:36:11;;;;;;;;;18.67;16.00;;;;;14.78;63.97;101127.19;4999146;28;45515;-79
2023/05/11 04:38:37;;;;;;;;;13.67;7.00;;;;;14.84;63.38;101131.53;4999475;28;46040;-75
2023/05/11 04:41:07;;;;;;;;;5.00;5.00;;;;;14.79;62.94;101128.94;4999449;28;45411;-78
2023/05/11 04:43:33;;;;;;;;;3.00;3.00;;;;;14.61;62.89;101106.22;4995220;28;45333;-77
2023/05/11 04:45:58;;;;;;;;;6.67;4.00;;;;;14.99;63.43;101163.00;4994075;28;45287;-76
2023/05/11 04:48:25;;;;;;;;;4.33;4.33;;;;;14.82;65.26;101134.16;4993562;28;45732;-76
2023/05/11 04:50:51;;;;;;;;;5.00;4.67;;;;;14.96;63.61;101163.06;4993526;28;45593;-74
2023/05/11 04:53:16;;;;;;;;;6.00;5.67;;;;;14.92;64.27;101149.91;4994111;28;45476;-77
2023/05/11 04:55:42;;;;;;;;;4.67;4.67;;;;;14.65;65.26;101093.03;4994127;28;45416;-76
2023/05/11 04:58:07;;;;;;;;;5.00;5.00;;;;;14.57;63.70;101075.53;4993858;28;45755;-74
2023/05/11 05:00:33;;;;;;;;;4.67;4.67;;;;;14.97;64.34;101140.19;4996539;28;45503;-76
2023/05/11 05:02:59;;;;;;;;;5.33;5.00;;;;;15.15;64.93;101166.38;4976192;28;45532;-74
2023/05/11 05:05:25;;;;;;;;;4.00;4.00;;;;;14.85;63.98;101106.88;4976583;28;45493;-77
2023/05/11 05:07:50;;;;;;;;;5.00;5.00;;;;;14.95;63.48;101118.22;4993640;28;46403;-79
2023/05/11 05:10:16;;;;;;;;;4.67;4.00;;;;;15.11;63.00;101147.97;4993988;28;45379;-79
2023/05/11 05:12:41;;;;;;;;;5.33;5.33;;;;;15.23;62.34;101166.31;4997255;28;45338;-77
2023/05/11 05:15:08;;;;;;;;;5.00;5.00;;;;;15.15;62.08;101161.13;4998794;28;45828;-77
2023/05/11 05:17:33;;;;;;;;;3.67;3.67;;;;;14.75;62.41;101095.56;4997228;28;45356;-76
2023/05/11 05:19:59;;;;;;;;;4.67;4.67;;;;;14.88;67.68;101114.78;4997712;28;45682;-76
2023/05/11 05:22:25;;;;;;;;;4.67;4.67;;;;;15.29;64.08;101168.03;4996884;28;45694;-75
2023/05/11 05:24:51;;;;;;;;;5.33;5.00;;;;;15.44;63.32;101187.19;4978826;28;45692;-76
2023/05/11 05:27:17;;;;;;;;;9.00;7.33;;;;;15.35;65.59;101163.56;4979177;28;48115;-77
2023/05/11 05:29:42;;;;;;;;;8.33;8.33;;;;;15.35;65.56;101155.66;4996305;28;45475;-75
2023/05/11 05:32:08;;;;;;;;;9.00;9.00;;;;;15.52;64.03;101179.22;4988630;28;45539;-75
2023/05/11 05:34:34;;;;;;;;;9.33;7.00;;;;;15.45;62.85;101154.63;4999801;28;45471;-75
2023/05/11 05:37:00;;;;;;;;;7.67;7.00;;;;;15.15;62.51;101108.34;4981261;28;47525;-73
2023/05/11 05:39:25;;;;;;;;;6.67;4.67;;;;;15.71;62.14;101193.09;4998111;28;45481;-72
2023/05/11 05:41:51;;;;;;;;;6.00;5.33;;;;;15.48;63.44;101159.00;4995011;28;45397;-73
2023/05/11 05:44:17;;;;;;;;;4.67;4.67;;;;;15.74;62.52;101194.84;4994649;28;45413;-74
2023/05/11 05:46:43;;;;;;;;;4.00;3.33;;;;;15.56;60.78;101159.78;4998349;28;45539;-72
2023/05/11 05:49:09;;;;;;;;;7.33;4.00;;;;;15.76;60.53;101206.25;4982957;28;46685;-78
2023/05/11 05:51:34;;;;;;;;;9.00;6.67;;;;;15.66;60.52;101202.78;4977076;28;46671;-73
2023/05/11 05:54:00;;;;;;;;;6.67;6.33;;;;;15.72;60.96;101205.41;4998196;28;45361;-76
2023/05/11 05:56:26;;;;;;;;;6.67;6.67;;;;;15.55;60.11;101178.28;4998009;28;45882;-76
2023/05/11 05:58:51;;;;;;;;;5.33;5.00;;;;;15.41;60.28;101166.13;4998749;28;45518;-76
2023/05/11 06:01:17;;;;;;;;;6.67;5.00;;;;;15.52;60.23;101183.59;4995589;28;45451;-74
2023/05/11 06:03:46;;;;;;;;;4.00;3.67;;;;;15.52;61.17;101194.16;4994545;28;45544;-74
2023/05/11 06:06:11;;;;;;;;;6.67;5.00;;;;;15.26;60.49;101148.69;4993953;28;45880;-76
2023/05/11 06:08:37;;;;;;;;;8.67;4.00;;;;;15.56;60.37;101196.75;4976701;28;45684;-76
2023/05/11 06:11:03;;;;;;;;;8.33;6.67;;;;;15.30;60.49;101156.56;4976691;28;45476;-75
2023/05/11 06:13:31;;;;;;;;;4.67;4.67;;;;;15.58;60.71;101216.09;4976192;28;45919;-76
2023/05/11 06:15:57;;;;;;;;;4.00;4.00;;;;;15.46;60.89;101195.97;4994747;28;46294;-77
2023/05/11 06:18:25;;;;;;;;;5.67;5.67;;;;;15.22;60.90;101160.16;4975579;28;45884;-74
2023/05/11 06:20:50;;;;;;;;;5.00;5.00;;;;;15.36;60.79;101180.25;4976279;28;45580;-75
2023/05/11 06:23:16;;;;;;;;;5.33;5.00;;;;;15.57;60.60;101221.41;4995748;28;45773;-76
2023/05/11 06:25:41;;;;;;;;;6.33;5.00;;;;;15.13;60.85;101154.97;4999804;28;46255;-75
2023/05/11 06:28:07;;;;;;;;;3.67;3.00;;;;;14.98;60.79;101145.47;4998827;28;45330;-76
2023/05/11 06:30:33;;;;;;;;;6.33;5.00;;;;;15.45;60.74;101219.75;4996068;28;45638;-75
2023/05/11 06:32:59;;;;;;;;;5.67;5.67;;;;;15.33;61.04;101206.66;4980422;28;45618;-76
2023/05/11 06:35:24;;;;;;;;;6.67;4.00;;;;;15.38;61.31;101218.06;4997157;28;46325;-75
2023/05/11 06:37:50;;;;;;;;;6.00;3.00;;;;;15.47;60.81;101224.13;4996168;28;45321;-76
2023/05/11 06:40:16;;;;;;;;;4.67;4.67;;;;;14.96;61.13;101149.00;4995866;28;45525;-77
2023/05/11 06:42:42;;;;;;;;;5.33;5.00;;;;;15.48;61.02;101225.88;4996623;28;45397;-76
2023/05/11 06:45:08;;;;;;;;;5.00;5.00;;;;;15.50;60.94;101231.16;4977799;28;46976;-76
2023/05/11 06:47:34;;;;;;;;;8.67;6.00;;;;;15.21;61.09;101184.81;4999531;28;45417;-77
2023/05/11 06:50:00;;;;;;;;;5.00;5.00;;;;;15.46;61.20;101238.19;5001552;28;45570;-74
2023/05/11 06:52:26;;;;;;;;;5.00;5.00;;;;;15.22;61.17;101181.28;4997976;28;45335;-74
2023/05/11 06:54:51;;;;;;;;;5.67;4.33;;;;;15.54;60.79;101234.63;4978607;28;45632;-75
2023/05/11 06:57:17;;;;;;;;;9.33;6.00;;;;;15.57;60.95;101239.88;4979704;28;45559;-76
2023/05/11 06:59:43;;;;;;;;;5.00;5.00;;;;;15.08;60.55;101145.38;4983606;28;45400;-76
2023/05/11 07:02:09;;;;;;;;;6.67;5.67;;;;;15.48;60.73;101203.88;5002058;28;45639;-76
2023/05/11 07:04:34;;;;;;;;;8.33;7.00;;;;;15.52;60.58;101213.53;4994083;28;45669;-75
2023/05/11 07:07:00;;;;;;;;;7.67;7.00;;;;;15.15;60.88;101147.91;4984180;28;45669;-76
2023/05/11 07:09:25;;;;;;;;;8.00;6.00;;;;;15.35;60.87;101174.13;4978585;28;45477;-77
2023/05/11 07:11:51;;;;;;;;;6.00;6.00;;;;;15.40;60.66;101174.03;4996799;28;45385;-76
2023/05/11 07:14:17;;;;;;;;;8.00;8.00;;;;;15.25;60.53;101146.06;4995962;28;45554;-74
2023/05/11 07:16:43;;;;;;;;;11.33;8.00;;;;;15.39;60.57;101175.81;4978165;28;45838;-75
2023/05/11 07:19:09;;;;;;;;;6.67;6.67;;;;;15.39;60.34;101182.88;4995984;28;45503;-75
2023/05/11 07:21:35;;;;;;;;;10.67;5.00;;;;;15.42;61.11;101177.53;4998906;28;45524;-76
2023/05/11 07:24:02;;;;;;;;;7.00;6.00;;;;;15.71;60.96;101229.16;5000245;28;45396;-77
2023/05/11 07:26:28;;;;;;;;;7.67;5.33;;;;;15.37;60.66;101171.44;4981912;28;45588;-76
2023/05/11 07:28:56;;;;;;;;;8.33;6.00;;;;;15.64;60.38;101208.09;4997134;28;45510;-75
2023/05/11 07:31:25;;;;;;;;;6.00;6.00;;;;;15.74;60.40;101208.03;4996310;28;45520;-76
2023/05/11 07:33:52;;;;;;;;;8.00;8.00;;;;;15.92;60.27;101218.34;4995120;28;45420;-77
2023/05/11 07:36:17;;;;;;;;;12.00;7.67;;;;;15.96;59.67;101206.88;4994432;28;45381;-76
2023/05/11 07:38:43;;;;;;;;;9.00;5.67;;;;;16.15;59.17;101228.63;4998531;28;45423;-75
2023/05/11 07:41:08;;;;;;;;;7.33;7.00;;;;;16.21;59.34;101240.91;4999840;28;45207;-75
2023/05/11 07:43:34;;;;;;;;;7.67;6.00;;;;;16.22;58.98;101234.72;4999115;28;45479;-75
2023/05/11 07:46:00;;;;;;;;;8.33;6.00;;;;;15.68;58.66;101142.91;4996248;28;45301;-76
2023/05/11 07:48:25;;;;;;;;;8.00;6.00;;;;;16.13;58.53;101197.84;4995595;28;45548;-75
2023/05/11 07:50:51;;;;;;;;;8.33;7.33;;;;;16.11;58.69;101182.91;4998420;28;45447;-74
2023/05/11 07:53:17;;;;;;;;;6.33;6.33;;;;;16.37;58.25;101210.72;4995534;28;45920;-75
2023/05/11 07:55:43;;;;;;;;;8.33;7.00;;;;;16.02;58.20;101142.53;4995680;28;45813;-75
2023/05/11 07:58:08;;;;;;;;;8.33;6.67;;;;;16.26;57.68;101173.00;4977229;28;45578;-75
2023/05/11 08:00:34;;;;;;;;;8.00;8.00;;;;;16.48;57.75;101211.44;4994896;28;45951;-77
2023/05/11 08:03:00;;;;;;;;;6.00;5.00;;;;;16.45;57.62;101200.91;4984932;28;45500;-75
2023/05/11 08:05:26;;;;;;;;;4.00;4.00;;;;;16.48;57.59;101195.56;4977102;28;45816;-74
2023/05/11 08:07:52;;;;;;;;;7.33;5.33;;;;;16.74;57.25;101233.97;4976672;28;45457;-73
2023/05/11 08:10:17;;;;;;;;;8.00;8.00;;;;;16.70;56.59;101205.81;4979563;28;45564;-77
2023/05/11 08:12:43;;;;;;;;;7.00;5.00;;;;;16.50;56.89;101169.97;4995206;28;45524;-74
2023/05/11 08:15:09;;;;;;;;;10.00;5.67;;;;;16.87;56.60;101222.34;4997019;28;45427;-72
2023/05/11 08:17:35;;;;;;;;;7.00;6.00;;;;;16.91;56.61;101220.50;4998847;28;45411;-74
2023/05/11 08:20:02;;;;;;;;;6.33;5.00;;;;;17.00;56.55;101214.19;4997866;28;46020;-73
2023/05/11 08:22:29;;;;;;;;;6.00;6.00;;;;;17.08;56.03;101207.84;4976019;28;47133;-76
2023/05/11 08:24:55;;;;;;;;;8.00;5.67;;;;;17.13;56.05;101219.25;4994590;28;45545;-71
2023/05/11 08:27:20;;;;;;;;;5.33;3.67;;;;;17.04;56.06;101192.06;4994251;28;45564;-72
2023/05/11 08:29:47;;;;;;;;;10.00;6.00;;;;;17.28;55.86;101215.44;4995715;28;45374;-72
2023/05/11 08:32:12;;;;;;;;;12.00;5.67;;;;;17.26;55.16;101196.06;4993578;28;47802;-73
2023/05/11 08:34:38;;;;;;;;;6.33;6.00;;;;;17.48;55.53;101208.91;4994006;28;45469;-71
2023/05/11 08:37:04;;;;;;;;;6.67;6.67;;;;;17.56;54.82;101201.72;4994042;28;45788;-71
2023/05/11 08:39:32;;;;;;;;;7.33;6.33;;;;;17.80;54.89;101216.22;4994203;28;46068;-69
2023/05/11 08:41:58;;;;;;;;;8.67;6.67;;;;;17.91;55.68;101206.28;4993736;28;46089;-69
2023/05/11 08:44:29;;;;;;;;;8.67;5.00;;;;;18.01;55.51;101213.16;4993650;28;45721;-71
2023/05/11 08:46:56;;;;;;;;;9.00;6.00;;;;;18.15;55.37;101212.88;4993680;28;45655;-71
2023/05/11 08:49:22;;;;;;;;;7.33;7.00;;;;;18.17;55.90;101221.66;4991702;28;45358;-69
2023/05/11 08:51:48;;;;;;;;;6.00;5.67;;;;;18.13;54.66;101211.16;4991274;28;47684;-70
2023/05/11 08:54:13;;;;;;;;;10.33;7.00;;;;;18.16;55.07;101213.75;4993328;28;45320;-70
2023/05/11 08:56:40;;;;;;;;;6.33;6.33;;;;;18.16;54.42;101200.50;4993458;28;45446;-69
2023/05/11 08:59:07;;;;;;;;;8.00;7.33;;;;;18.17;54.22;101197.78;4993594;28;45490;-70
2023/05/11 09:01:35;;;;;;;;;8.00;6.00;;;;;18.26;54.30;101211.75;4992771;28;45510;-69
2023/05/11 09:04:03;;;;;;;;;7.33;6.00;;;;;18.29;54.13;101207.25;4991922;28;45773;-70
2023/05/11 09:06:29;;;;;;;;;9.67;6.00;;;;;18.28;54.65;101204.66;4994512;28;45393;-70
2023/05/11 09:08:56;;;;;;;;;8.00;6.67;;;;;18.39;54.67;101205.28;4996190;28;45472;-71
2023/05/11 09:11:23;;;;;;;;;14.33;9.67;;;;;18.44;54.26;101209.56;4975100;28;46720;-69
2023/05/11 09:13:50;;;;;;;;;6.00;6.00;;;;;18.48;53.76;101207.69;4979096;28;45236;-67
2023/05/11 09:16:16;;;;;;;;;7.00;6.00;;;;;18.59;53.57;101212.75;4993887;28;45782;-70
2023/05/11 09:18:52;;;;;;;;;8.00;7.00;;;;;18.61;53.05;101209.16;4993539;28;45575;-67
2023/05/11 09:21:18;;;;;;;;;9.00;9.00;;;;;18.72;53.26;101210.69;4975159;28;47706;-69
2023/05/11 09:23:48;;;;;;;;;6.33;6.33;;;;;18.77;52.80;101212.38;4977648;28;45467;-69
2023/05/11 09:26:19;;;;;;;;;8.33;6.33;;;;;18.79;53.09;101207.00;4997769;28;45503;-68
2023/05/11 09:28:49;;;;;;;;;8.00;7.00;;;;;18.70;52.63;101208.09;4998157;28;45503;-68
2023/05/11 09:31:45;;;;;;;;;5.33;4.00;;;;;18.75;52.60;101216.78;4993605;28;46591;-68
2023/05/11 09:34:16;;;;;;;;;9.00;6.00;;;;;18.80;52.63;101200.81;4980670;28;45369;-69
2023/05/11 09:36:45;;;;;;;;;6.33;6.33;;;;;18.89;52.13;101197.91;4994497;28;45517;-69
2023/05/11 09:39:15;;;;;;;;;7.00;7.00;;;;;19.01;52.22;101200.25;4979829;28;45374;-69
2023/05/11 09:41:41;;;;;;;;;6.33;6.00;;;;;19.09;51.93;101215.13;4980783;28;45399;-69
2023/05/11 09:44:16;;;;;;;;;10.33;7.67;;;;;19.09;51.42;101204.50;4980941;28;45465;-68
2023/05/11 09:46:43;;;;;;;;;8.33;6.00;;;;;19.11;51.48;101210.66;4978520;28;45724;-69
2023/05/11 09:49:10;;;;;;;;;6.00;6.00;;;;;19.12;52.58;101199.09;4994840;28;45699;-68
2023/05/11 09:51:39;;;;;;;;;6.00;6.00;;;;;19.28;51.37;101206.63;4977411;28;47169;-69
2023/05/11 09:54:25;;;;;;;;;6.00;6.00;;;;;19.27;50.97;101193.41;4999890;28;45352;-69
2023/05/11 09:56:57;;;;;;;;;8.00;7.00;;;;;19.32;50.81;101177.34;4999372;28;45423;-69
2023/05/11 09:59:41;;;;;;;;;5.67;5.67;;;;;19.58;49.75;101188.09;4979501;28;45410;-71
2023/05/11 10:02:27;;;;;;;;;6.67;5.00;;;;;19.65;50.26;101195.00;4997999;28;45483;-69
2023/05/11 10:04:57;;;;;;;;;7.67;5.33;;;;;19.66;49.58;101191.41;4997151;28;45483;-70
2023/05/11 10:07:26;;;;;;;;;11.33;5.33;;;;;19.68;49.82;101175.47;4999163;28;45411;-69
2023/05/11 10:10:00;;;;;;;;;5.67;5.00;;;;;19.57;49.74;101156.25;5001728;28;45338;-69
2023/05/11 10:12:27;;;;;;;;;6.67;6.00;;;;;19.78;48.39;101184.03;4985306;28;46415;-67
2023/05/11 10:15:08;;;;;;;;;5.00;5.00;;;;;19.73;49.75;101186.81;5001939;28;45380;-68
2023/05/11 10:17:35;;;;;;;;;5.33;5.33;;;;;19.69;49.48;101180.75;4999623;28;45667;-69
2023/05/11 10:20:03;;;;;;;;;5.67;5.67;;;;;19.72;49.77;101189.50;4997415;28;45432;-68
2023/05/11 10:22:30;;;;;;;;;6.00;6.00;;;;;19.61;49.78;101166.75;4999590;28;45437;-68
2023/05/11 10:24:57;;;;;;;;;8.00;5.00;;;;;19.62;49.44;101184.47;4979802;28;45480;-67
2023/05/11 10:27:23;;;;;;;;;4.67;4.67;;;;;19.43;50.03;101173.47;4996377;28;45552;-68
2023/05/11 10:29:49;;;;;;;;;7.00;6.00;;;;;19.34;50.74;101173.72;4996480;28;45395;-67
2023/05/11 10:32:16;;;;;;;;;6.33;6.00;;;;;19.33;50.71;101181.72;4978130;28;46974;-68
2023/05/11 10:34:46;;;;;;;;;8.67;5.00;;;;;19.22;50.63;101177.59;4995986;28;45425;-69
2023/05/11 10:37:13;;;;;;;;;4.33;4.00;;;;;19.11;51.12;101182.31;4996211;28;45482;-68
2023/05/11 10:39:40;;;;;;;;;4.67;4.67;;;;;19.04;51.77;101186.91;4996384;28;45406;-68
2023/05/11 10:42:16;;;;;;;;;6.00;6.00;;;;;18.92;51.03;101176.59;4995770;28;46084;-69
2023/05/11 10:44:48;;;;;;;;;4.33;4.33;;;;;18.88;51.72;101180.22;4995536;28;45488;-68
2023/05/11 10:47:53;;;;;;;;;5.33;5.00;;;;;18.83;51.10;101177.69;4995199;28;45524;-68
2023/05/11 10:50:35;;;;;;;;;6.00;5.00;;;;;18.74;50.19;101175.22;4994871;28;45501;-71
2023/05/11 10:53:13;;;;;;;;;7.00;6.00;;;;;18.68;49.68;101175.41;4977299;28;46263;-71
2023/05/11 10:56:00;;;;;;;;;8.67;6.00;;;;;18.58;49.75;101181.81;4980054;28;45473;-72
2023/05/11 10:58:47;;;;;;;;;9.33;8.67;;;;;18.43;49.33;101177.75;4999630;28;45628;-70
2023/05/11 11:01:16;;;;;;;;;26.00;23.33;;;;;18.32;49.33;101177.13;4970943;28;45530;-70
2023/05/11 11:03:54;;;;;;;;;30.00;29.00;;;;;18.22;49.35;101177.38;4999261;28;45943;-71
2023/05/11 11:06:27;;;;;;;;;48.25;36.00;;;;;17.99;49.17;101161.09;4978881;28;45811;-71
2023/05/11 11:09:04;;;;;;;;;36.67;26.33;;;;;17.87;49.96;101153.41;4977822;28;45391;-70
2023/05/11 11:11:38;;;;;;;;;30.00;23.33;;;;;17.75;50.22;101150.09;4995411;28;45521;-71
2023/05/11 11:14:05;;;;;;;;;14.33;13.33;;;;;17.84;49.78;101161.41;4995245;28;45351;-72
2023/05/11 11:16:34;;;;;;;;;10.00;8.00;;;;;17.73;49.78;101159.84;4976977;28;45801;-70
2023/05/11 11:19:28;;;;;;;;;60.00;45.25;;;;;17.69;51.16;101163.44;4992738;28;45597;-72
2023/05/11 11:21:54;;;;;;;;;172.25;142.75;;;;;17.63;52.33;101168.00;4994106;28;45512;-71
2023/05/11 11:24:38;;;;;;;;;128.00;106.67;;;;;17.66;51.83;101171.47;4992791;28;46033;-71
2023/05/11 11:27:05;;;;;;;;;54.25;41.75;;;;;17.52;51.72;101155.00;5001520;28;45872;-72
2023/05/11 11:29:33;;;;;;;;;21.00;20.00;;;;;17.35;52.42;101135.00;4993703;28;46524;-70